Minerva Zen — SVBN3 — position and weather

sailwx.info

Track history (hours):
 
Tides and Currents Weather Stations Pressure Air Temp Water Temp Dewpoint Dewpoint Depression Visibility Wind Speed Wind Dir Waves Ship Positions

Minerva Zen

Last reported at 2015-Jun-29 19:22 UTC. Time now 2015-Jul-05 00:10 UTC.
Position N 45°04' W 009°26'.

Length 183 m; draft 8.5 m.

Type: Ship. MMSI: 241190000.

Date/timePositionNaut miles runAvg speedWind from/ knotsBaromVisibWave heightAir tempDewpointWater temp
2015-Jun-29 19:22N 45°04' W 009°26'5 0.5
2015-Jun-29 08:06N 44°60' W 009°23'2 2.8
2015-Jun-29 07:33N 45°00' W 009°25'10 1.8
2015-Jun-29 02:15N 44°54' W 009°14'1 1.2
2015-Jun-29 01:27N 44°54' W 009°13'3 3.0
2015-Jun-29 00:33N 44°55' W 009°16'3 3.2
2015-Jun-28 23:33N 44°57' W 009°20'4 3.5
2015-Jun-28 22:22N 44°59' W 009°25'3 3.4
2015-Jun-28 21:20N 44°60' W 009°30'8 0.4
2015-Jun-27 22:21N 44°52' W 009°26'  
2015-Jun-22 19:33N 36°10' W 007°20'1110.9
2015-Jun-22 18:33N 36°09' W 007°06'1111.0
2015-Jun-22 17:33N 36°08' W 006°53'1110.7
2015-Jun-22 16:33N 36°06' W 006°40'16 0.7
2015-Jun-21 16:15N 36°04' W 006°20'0 0.0
2015-Jun-21 15:30N 36°04' W 006°20'0 0.0
2015-Jun-20 18:21N 36°04' W 006°20'0 0.1
2015-Jun-20 17:06N 36°04' W 006°20'0 0.0
2015-Jun-20 16:27N 36°04' W 006°20'0 0.0
2015-Jun-20 15:27N 36°04' W 006°20'0 0.0
2015-Jun-20 14:30N 36°04' W 006°20'0 0.0
2015-Jun-20 07:33N 36°04' W 006°20'  
Track history (hours):
 
Tides and Currents Weather Stations Pressure Air Temp Water Temp Dewpoint Dewpoint Depression Visibility Wind Speed Wind Dir Waves Ship Positions

Minerva Zen

Last reported at 2015-Jun-29 19:22 UTC. Time now 2015-Jul-05 00:10 UTC.
Position N 45°04' W 009°26'.

Length 183 m; draft 8.5 m.

Type: Ship. MMSI: 241190000.

Date/timePositionNaut miles runAvg speedWind from/ knotsBaromVisibWave heightAir tempDewpointWater temp
2015-Jun-29 19:22N 45°04' W 009°26'5 0.5
2015-Jun-29 08:06N 44°60' W 009°23'2 2.8
2015-Jun-29 07:33N 45°00' W 009°25'10 1.8
2015-Jun-29 02:15N 44°54' W 009°14'1 1.2
2015-Jun-29 01:27N 44°54' W 009°13'3 3.0
2015-Jun-29 00:33N 44°55' W 009°16'3 3.2
2015-Jun-28 23:33N 44°57' W 009°20'4 3.5
2015-Jun-28 22:22N 44°59' W 009°25'3 3.4
2015-Jun-28 21:20N 44°60' W 009°30'8 0.4
2015-Jun-27 22:21N 44°52' W 009°26'  
2015-Jun-22 19:33N 36°10' W 007°20'1110.9
2015-Jun-22 18:33N 36°09' W 007°06'1111.0
2015-Jun-22 17:33N 36°08' W 006°53'1110.7
2015-Jun-22 16:33N 36°06' W 006°40'16 0.7
2015-Jun-21 16:15N 36°04' W 006°20'0 0.0
2015-Jun-21 15:30N 36°04' W 006°20'0 0.0
2015-Jun-20 18:21N 36°04' W 006°20'0 0.1
2015-Jun-20 17:06N 36°04' W 006°20'0 0.0
2015-Jun-20 16:27N 36°04' W 006°20'0 0.0
2015-Jun-20 15:27N 36°04' W 006°20'0 0.0
2015-Jun-20 14:30N 36°04' W 006°20'0 0.0
2015-Jun-20 07:33N 36°04' W 006°20'  

Dump ship's entire track history